sensor_id;sensor_type;location;lat;lon;timestamp;P1;durP1;ratioP1;P2;durP2;ratioP2
42168;SDS011;27838;43.858;25.974;2023-11-19T00:01:35;2.88;;;1.45;;
42168;SDS011;27838;43.858;25.974;2023-11-19T00:04:02;1.77;;;1.50;;
42168;SDS011;27838;43.858;25.974;2023-11-19T00:06:29;2.65;;;1.55;;
42168;SDS011;27838;43.858;25.974;2023-11-19T00:08:56;2.22;;;1.50;;
42168;SDS011;27838;43.858;25.974;2023-11-19T00:11:22;2.70;;;1.42;;
42168;SDS011;27838;43.858;25.974;2023-11-19T00:13:49;4.05;;;1.65;;
42168;SDS011;27838;43.858;25.974;2023-11-19T00:16:16;2.25;;;1.70;;
42168;SDS011;27838;43.858;25.974;2023-11-19T00:18:42;1.55;;;1.20;;
42168;SDS011;27838;43.858;25.974;2023-11-19T00:21:09;1.90;;;1.45;;
42168;SDS011;27838;43.858;25.974;2023-11-19T00:23:36;1.67;;;1.58;;
42168;SDS011;27838;43.858;25.974;2023-11-19T00:26:03;3.55;;;1.50;;
42168;SDS011;27838;43.858;25.974;2023-11-19T00:28:31;5.00;;;1.63;;
42168;SDS011;27838;43.858;25.974;2023-11-19T00:30:59;6.63;;;2.92;;
42168;SDS011;27838;43.858;25.974;2023-11-19T00:33:25;4.30;;;2.50;;
42168;SDS011;27838;43.858;25.974;2023-11-19T00:35:52;2.30;;;1.60;;
42168;SDS011;27838;43.858;25.974;2023-11-19T00:38:18;1.45;;;1.33;;
42168;SDS011;27838;43.858;25.974;2023-11-19T00:40:45;2.63;;;1.50;;
42168;SDS011;27838;43.858;25.974;2023-11-19T00:43:11;3.33;;;1.88;;
42168;SDS011;27838;43.858;25.974;2023-11-19T00:45:38;3.17;;;1.70;;
42168;SDS011;27838;43.858;25.974;2023-11-19T00:48:05;3.67;;;1.50;;
42168;SDS011;27838;43.858;25.974;2023-11-19T00:50:32;2.95;;;1.60;;
42168;SDS011;27838;43.858;25.974;2023-11-19T00:52:58;2.33;;;1.63;;
42168;SDS011;27838;43.858;25.974;2023-11-19T00:55:25;2.40;;;1.63;;
42168;SDS011;27838;43.858;25.974;2023-11-19T00:57:54;2.35;;;1.70;;
42168;SDS011;27838;43.858;25.974;2023-11-19T01:00:21;3.22;;;1.40;;
42168;SDS011;27838;43.858;25.974;2023-11-19T01:02:51;4.97;;;1.60;;
42168;SDS011;27838;43.858;25.974;2023-11-19T01:05:18;4.63;;;1.45;;
42168;SDS011;27838;43.858;25.974;2023-11-19T01:07:47;2.08;;;1.60;;
42168;SDS011;27838;43.858;25.974;2023-11-19T01:10:15;4.15;;;1.58;;
42168;SDS011;27838;43.858;25.974;2023-11-19T01:12:43;2.63;;;1.52;;
42168;SDS011;27838;43.858;25.974;2023-11-19T01:15:10;3.72;;;1.65;;
42168;SDS011;27838;43.858;25.974;2023-11-19T01:17:39;2.53;;;1.45;;
42168;SDS011;27838;43.858;25.974;2023-11-19T01:20:05;1.55;;;1.35;;
42168;SDS011;27838;43.858;25.974;2023-11-19T01:22:32;1.75;;;1.52;;
42168;SDS011;27838;43.858;25.974;2023-11-19T01:24:59;2.40;;;1.52;;
42168;SDS011;27838;43.858;25.974;2023-11-19T01:27:25;2.63;;;1.50;;
42168;SDS011;27838;43.858;25.974;2023-11-19T01:29:52;1.63;;;1.30;;
42168;SDS011;27838;43.858;25.974;2023-11-19T01:32:18;1.40;;;1.20;;
42168;SDS011;27838;43.858;25.974;2023-11-19T01:34:45;1.35;;;1.25;;
42168;SDS011;27838;43.858;25.974;2023-11-19T01:37:11;1.67;;;1.25;;
42168;SDS011;27838;43.858;25.974;2023-11-19T01:39:39;1.35;;;1.25;;
42168;SDS011;27838;43.858;25.974;2023-11-19T01:42:05;1.23;;;1.10;;
42168;SDS011;27838;43.858;25.974;2023-11-19T01:44:31;1.50;;;1.10;;
42168;SDS011;27838;43.858;25.974;2023-11-19T01:46:58;1.52;;;1.40;;
42168;SDS011;27838;43.858;25.974;2023-11-19T01:49:25;1.00;;;0.90;;
42168;SDS011;27838;43.858;25.974;2023-11-19T01:51:52;1.45;;;1.13;;
42168;SDS011;27838;43.858;25.974;2023-11-19T01:54:19;1.45;;;1.30;;
42168;SDS011;27838;43.858;25.974;2023-11-19T01:56:46;1.33;;;1.10;;
42168;SDS011;27838;43.858;25.974;2023-11-19T01:59:12;3.33;;;1.30;;
42168;SDS011;27838;43.858;25.974;2023-11-19T02:01:40;1.40;;;1.30;;
42168;SDS011;27838;43.858;25.974;2023-11-19T02:04:07;1.38;;;1.27;;
42168;SDS011;27838;43.858;25.974;2023-11-19T02:06:35;1.95;;;1.40;;
42168;SDS011;27838;43.858;25.974;2023-11-19T02:09:05;2.42;;;1.77;;
42168;SDS011;27838;43.858;25.974;2023-11-19T02:11:33;2.05;;;1.50;;
42168;SDS011;27838;43.858;25.974;2023-11-19T02:14:00;3.20;;;2.20;;
42168;SDS011;27838;43.858;25.974;2023-11-19T02:16:28;2.65;;;1.92;;
42168;SDS011;27838;43.858;25.974;2023-11-19T02:18:55;2.05;;;1.73;;
42168;SDS011;27838;43.858;25.974;2023-11-19T02:21:21;2.38;;;1.90;;
42168;SDS011;27838;43.858;25.974;2023-11-19T02:23:48;1.60;;;1.50;;
42168;SDS011;27838;43.858;25.974;2023-11-19T02:26:16;7.72;;;2.28;;
42168;SDS011;27838;43.858;25.974;2023-11-19T02:28:53;3.85;;;1.35;;
42168;SDS011;27838;43.858;25.974;2023-11-19T02:31:19;1.92;;;1.50;;
42168;SDS011;27838;43.858;25.974;2023-11-19T02:33:48;2.33;;;1.80;;
42168;SDS011;27838;43.858;25.974;2023-11-19T02:36:15;4.18;;;1.40;;
42168;SDS011;27838;43.858;25.974;2023-11-19T02:38:42;3.33;;;1.55;;
42168;SDS011;27838;43.858;25.974;2023-11-19T02:41:08;1.88;;;1.70;;
42168;SDS011;27838;43.858;25.974;2023-11-19T02:43:36;2.15;;;1.65;;
42168;SDS011;27838;43.858;25.974;2023-11-19T02:46:04;1.83;;;1.40;;
42168;SDS011;27838;43.858;25.974;2023-11-19T02:48:32;2.22;;;1.52;;
42168;SDS011;27838;43.858;25.974;2023-11-19T02:51:02;1.88;;;1.60;;
42168;SDS011;27838;43.858;25.974;2023-11-19T02:53:32;5.38;;;1.67;;
42168;SDS011;27838;43.858;25.974;2023-11-19T02:55:58;4.07;;;2.38;;
42168;SDS011;27838;43.858;25.974;2023-11-19T02:58:34;2.78;;;2.00;;
42168;SDS011;27838;43.858;25.974;2023-11-19T03:01:01;2.28;;;2.00;;
42168;SDS011;27838;43.858;25.974;2023-11-19T03:03:37;4.35;;;2.45;;
42168;SDS011;27838;43.858;25.974;2023-11-19T03:06:05;3.20;;;2.20;;
42168;SDS011;27838;43.858;25.974;2023-11-19T03:08:34;3.58;;;2.35;;
42168;SDS011;27838;43.858;25.974;2023-11-19T03:11:02;3.60;;;2.25;;
42168;SDS011;27838;43.858;25.974;2023-11-19T03:13:29;3.45;;;2.28;;
42168;SDS011;27838;43.858;25.974;2023-11-19T03:15:56;3.05;;;2.47;;
42168;SDS011;27838;43.858;25.974;2023-11-19T03:18:22;2.83;;;2.10;;
42168;SDS011;27838;43.858;25.974;2023-11-19T03:20:49;3.95;;;2.60;;
42168;SDS011;27838;43.858;25.974;2023-11-19T03:23:17;2.78;;;2.30;;
42168;SDS011;27838;43.858;25.974;2023-11-19T03:25:43;3.47;;;2.70;;
42168;SDS011;27838;43.858;25.974;2023-11-19T03:28:10;4.38;;;2.50;;
42168;SDS011;27838;43.858;25.974;2023-11-19T03:30:37;3.92;;;2.90;;
42168;SDS011;27838;43.858;25.974;2023-11-19T03:33:04;3.67;;;2.55;;
42168;SDS011;27838;43.858;25.974;2023-11-19T03:35:30;2.50;;;2.08;;
42168;SDS011;27838;43.858;25.974;2023-11-19T03:37:58;4.22;;;2.40;;
42168;SDS011;27838;43.858;25.974;2023-11-19T03:40:24;2.88;;;2.22;;
42168;SDS011;27838;43.858;25.974;2023-11-19T03:42:51;3.33;;;2.50;;
42168;SDS011;27838;43.858;25.974;2023-11-19T03:45:17;3.65;;;2.80;;
42168;SDS011;27838;43.858;25.974;2023-11-19T03:47:44;2.85;;;2.38;;
42168;SDS011;27838;43.858;25.974;2023-11-19T03:50:10;3.30;;;2.50;;
42168;SDS011;27838;43.858;25.974;2023-11-19T03:52:37;3.67;;;2.53;;
42168;SDS011;27838;43.858;25.974;2023-11-19T03:55:03;2.30;;;2.10;;
42168;SDS011;27838;43.858;25.974;2023-11-19T03:57:30;4.43;;;2.15;;
42168;SDS011;27838;43.858;25.974;2023-11-19T03:59:57;2.85;;;2.30;;
42168;SDS011;27838;43.858;25.974;2023-11-19T04:02:24;2.80;;;2.53;;
42168;SDS011;27838;43.858;25.974;2023-11-19T04:04:53;4.20;;;2.58;;
42168;SDS011;27838;43.858;25.974;2023-11-19T04:07:20;3.78;;;2.60;;
42168;SDS011;27838;43.858;25.974;2023-11-19T04:09:46;2.63;;;2.20;;
42168;SDS011;27838;43.858;25.974;2023-11-19T04:12:13;2.92;;;2.10;;
42168;SDS011;27838;43.858;25.974;2023-11-19T04:14:40;3.78;;;2.58;;
42168;SDS011;27838;43.858;25.974;2023-11-19T04:17:06;5.32;;;2.75;;
42168;SDS011;27838;43.858;25.974;2023-11-19T04:19:33;4.22;;;2.13;;
42168;SDS011;27838;43.858;25.974;2023-11-19T04:21:59;4.88;;;2.35;;
42168;SDS011;27838;43.858;25.974;2023-11-19T04:24:26;2.85;;;2.28;;
42168;SDS011;27838;43.858;25.974;2023-11-19T04:26:53;7.97;;;3.20;;
42168;SDS011;27838;43.858;25.974;2023-11-19T04:29:19;3.17;;;2.08;;
42168;SDS011;27838;43.858;25.974;2023-11-19T04:31:46;2.58;;;1.80;;
42168;SDS011;27838;43.858;25.974;2023-11-19T04:34:12;3.72;;;2.10;;
42168;SDS011;27838;43.858;25.974;2023-11-19T04:36:39;2.53;;;2.00;;
42168;SDS011;27838;43.858;25.974;2023-11-19T04:39:05;2.80;;;1.92;;
42168;SDS011;27838;43.858;25.974;2023-11-19T04:41:35;3.63;;;1.95;;
42168;SDS011;27838;43.858;25.974;2023-11-19T04:44:02;3.28;;;1.90;;
42168;SDS011;27838;43.858;25.974;2023-11-19T04:46:28;3.08;;;1.80;;
42168;SDS011;27838;43.858;25.974;2023-11-19T04:48:55;2.90;;;1.85;;
42168;SDS011;27838;43.858;25.974;2023-11-19T04:51:23;4.10;;;1.77;;
42168;SDS011;27838;43.858;25.974;2023-11-19T04:53:49;3.65;;;2.45;;
42168;SDS011;27838;43.858;25.974;2023-11-19T04:56:16;3.30;;;2.20;;
42168;SDS011;27838;43.858;25.974;2023-11-19T04:58:44;3.72;;;2.40;;
42168;SDS011;27838;43.858;25.974;2023-11-19T05:01:13;5.25;;;2.95;;
42168;SDS011;27838;43.858;25.974;2023-11-19T05:03:42;4.38;;;2.58;;
42168;SDS011;27838;43.858;25.974;2023-11-19T05:06:08;4.25;;;2.80;;
42168;SDS011;27838;43.858;25.974;2023-11-19T05:08:35;5.88;;;2.88;;
42168;SDS011;27838;43.858;25.974;2023-11-19T05:11:02;5.55;;;2.83;;
42168;SDS011;27838;43.858;25.974;2023-11-19T05:13:29;5.32;;;3.17;;
42168;SDS011;27838;43.858;25.974;2023-11-19T05:15:55;8.05;;;3.72;;
42168;SDS011;27838;43.858;25.974;2023-11-19T05:18:22;5.93;;;3.10;;
42168;SDS011;27838;43.858;25.974;2023-11-19T05:20:48;5.90;;;3.15;;
42168;SDS011;27838;43.858;25.974;2023-11-19T05:23:15;4.15;;;2.60;;
42168;SDS011;27838;43.858;25.974;2023-11-19T05:25:41;5.55;;;3.10;;
42168;SDS011;27838;43.858;25.974;2023-11-19T05:28:08;8.52;;;4.15;;
42168;SDS011;27838;43.858;25.974;2023-11-19T05:30:34;6.55;;;3.80;;
42168;SDS011;27838;43.858;25.974;2023-11-19T05:33:01;6.47;;;3.83;;
42168;SDS011;27838;43.858;25.974;2023-11-19T05:35:27;4.18;;;3.22;;
42168;SDS011;27838;43.858;25.974;2023-11-19T05:37:54;4.18;;;2.95;;
42168;SDS011;27838;43.858;25.974;2023-11-19T05:40:21;3.90;;;3.00;;
42168;SDS011;27838;43.858;25.974;2023-11-19T05:42:48;4.55;;;3.10;;
42168;SDS011;27838;43.858;25.974;2023-11-19T05:45:14;3.20;;;2.75;;
42168;SDS011;27838;43.858;25.974;2023-11-19T05:47:41;6.82;;;3.42;;
42168;SDS011;27838;43.858;25.974;2023-11-19T05:50:08;3.72;;;2.90;;
42168;SDS011;27838;43.858;25.974;2023-11-19T05:52:35;3.28;;;2.85;;
42168;SDS011;27838;43.858;25.974;2023-11-19T05:55:02;4.13;;;2.85;;
42168;SDS011;27838;43.858;25.974;2023-11-19T06:00:00;6.40;;;3.83;;
42168;SDS011;27838;43.858;25.974;2023-11-19T06:02:28;6.50;;;3.42;;
42168;SDS011;27838;43.858;25.974;2023-11-19T06:04:55;4.50;;;3.28;;
42168;SDS011;27838;43.858;25.974;2023-11-19T06:07:21;5.47;;;3.05;;
42168;SDS011;27838;43.858;25.974;2023-11-19T06:09:48;6.55;;;3.63;;
42168;SDS011;27838;43.858;25.974;2023-11-19T06:12:14;4.65;;;3.45;;
42168;SDS011;27838;43.858;25.974;2023-11-19T06:14:41;4.20;;;3.28;;
42168;SDS011;27838;43.858;25.974;2023-11-19T06:17:07;4.78;;;3.35;;
42168;SDS011;27838;43.858;25.974;2023-11-19T06:19:36;4.45;;;3.38;;
42168;SDS011;27838;43.858;25.974;2023-11-19T06:22:03;9.80;;;3.88;;
42168;SDS011;27838;43.858;25.974;2023-11-19T06:24:30;5.10;;;3.72;;
42168;SDS011;27838;43.858;25.974;2023-11-19T06:26:56;5.32;;;4.03;;
42168;SDS011;27838;43.858;25.974;2023-11-19T06:29:23;4.30;;;3.30;;
42168;SDS011;27838;43.858;25.974;2023-11-19T06:31:49;4.30;;;3.22;;
42168;SDS011;27838;43.858;25.974;2023-11-19T06:34:16;5.30;;;3.58;;
42168;SDS011;27838;43.858;25.974;2023-11-19T06:36:43;4.30;;;3.35;;
42168;SDS011;27838;43.858;25.974;2023-11-19T06:39:09;4.45;;;2.80;;
42168;SDS011;27838;43.858;25.974;2023-11-19T06:41:37;7.90;;;3.75;;
42168;SDS011;27838;43.858;25.974;2023-11-19T06:44:04;4.38;;;3.40;;
42168;SDS011;27838;43.858;25.974;2023-11-19T06:46:31;4.35;;;3.15;;
42168;SDS011;27838;43.858;25.974;2023-11-19T06:48:57;4.50;;;2.90;;
42168;SDS011;27838;43.858;25.974;2023-11-19T06:51:24;5.38;;;2.90;;
42168;SDS011;27838;43.858;25.974;2023-11-19T06:53:51;6.88;;;3.00;;
42168;SDS011;27838;43.858;25.974;2023-11-19T06:56:19;4.80;;;3.28;;
42168;SDS011;27838;43.858;25.974;2023-11-19T06:58:47;18.55;;;10.23;;
42168;SDS011;27838;43.858;25.974;2023-11-19T07:01:17;14.65;;;8.70;;
42168;SDS011;27838;43.858;25.974;2023-11-19T07:03:45;23.27;;;14.32;;
42168;SDS011;27838;43.858;25.974;2023-11-19T07:06:12;9.85;;;5.68;;
42168;SDS011;27838;43.858;25.974;2023-11-19T07:08:40;7.50;;;4.35;;
42168;SDS011;27838;43.858;25.974;2023-11-19T07:11:10;4.35;;;3.10;;
42168;SDS011;27838;43.858;25.974;2023-11-19T07:13:37;6.03;;;3.55;;
42168;SDS011;27838;43.858;25.974;2023-11-19T07:16:04;13.55;;;9.05;;
42168;SDS011;27838;43.858;25.974;2023-11-19T07:18:31;8.30;;;4.38;;
42168;SDS011;27838;43.858;25.974;2023-11-19T07:21:00;10.02;;;7.00;;
42168;SDS011;27838;43.858;25.974;2023-11-19T07:23:28;9.00;;;4.82;;
42168;SDS011;27838;43.858;25.974;2023-11-19T07:25:54;6.13;;;3.60;;
42168;SDS011;27838;43.858;25.974;2023-11-19T07:28:21;5.47;;;3.03;;
42168;SDS011;27838;43.858;25.974;2023-11-19T07:30:48;3.90;;;2.63;;
42168;SDS011;27838;43.858;25.974;2023-11-19T07:33:14;5.57;;;2.83;;
42168;SDS011;27838;43.858;25.974;2023-11-19T07:35:42;4.55;;;2.95;;
42168;SDS011;27838;43.858;25.974;2023-11-19T07:38:09;4.43;;;3.35;;
42168;SDS011;27838;43.858;25.974;2023-11-19T07:40:35;4.15;;;2.95;;
42168;SDS011;27838;43.858;25.974;2023-11-19T07:43:02;4.90;;;3.00;;
42168;SDS011;27838;43.858;25.974;2023-11-19T07:45:28;5.72;;;3.47;;
42168;SDS011;27838;43.858;25.974;2023-11-19T07:47:55;22.67;;;11.73;;
42168;SDS011;27838;43.858;25.974;2023-11-19T07:50:21;9.52;;;6.32;;
42168;SDS011;27838;43.858;25.974;2023-11-19T07:52:48;20.15;;;11.73;;
42168;SDS011;27838;43.858;25.974;2023-11-19T07:55:14;21.70;;;11.55;;
42168;SDS011;27838;43.858;25.974;2023-11-19T07:57:41;8.00;;;5.05;;
42168;SDS011;27838;43.858;25.974;2023-11-19T08:00:07;4.53;;;3.70;;
42168;SDS011;27838;43.858;25.974;2023-11-19T08:02:37;4.00;;;3.00;;
42168;SDS011;27838;43.858;25.974;2023-11-19T08:05:04;4.47;;;3.10;;
42168;SDS011;27838;43.858;25.974;2023-11-19T08:07:30;4.18;;;2.72;;
42168;SDS011;27838;43.858;25.974;2023-11-19T08:09:56;6.78;;;4.40;;
42168;SDS011;27838;43.858;25.974;2023-11-19T08:12:23;4.53;;;3.10;;
42168;SDS011;27838;43.858;25.974;2023-11-19T08:14:49;4.65;;;2.85;;
42168;SDS011;27838;43.858;25.974;2023-11-19T08:17:16;4.38;;;3.10;;
42168;SDS011;27838;43.858;25.974;2023-11-19T08:19:42;4.88;;;3.10;;
42168;SDS011;27838;43.858;25.974;2023-11-19T08:22:09;3.50;;;2.65;;
42168;SDS011;27838;43.858;25.974;2023-11-19T08:24:35;6.85;;;2.97;;
42168;SDS011;27838;43.858;25.974;2023-11-19T08:27:02;4.32;;;2.80;;
42168;SDS011;27838;43.858;25.974;2023-11-19T08:29:29;10.77;;;3.58;;
42168;SDS011;27838;43.858;25.974;2023-11-19T08:31:55;6.13;;;4.57;;
42168;SDS011;27838;43.858;25.974;2023-11-19T08:34:22;8.20;;;3.58;;
42168;SDS011;27838;43.858;25.974;2023-11-19T08:36:51;16.83;;;10.18;;
42168;SDS011;27838;43.858;25.974;2023-11-19T08:39:18;85.30;;;50.88;;
42168;SDS011;27838;43.858;25.974;2023-11-19T08:41:46;65.60;;;40.47;;
42168;SDS011;27838;43.858;25.974;2023-11-19T08:44:13;11.35;;;6.97;;
42168;SDS011;27838;43.858;25.974;2023-11-19T08:46:46;9.13;;;5.97;;
42168;SDS011;27838;43.858;25.974;2023-11-19T08:49:15;11.15;;;6.72;;
42168;SDS011;27838;43.858;25.974;2023-11-19T08:51:42;4.97;;;3.67;;
42168;SDS011;27838;43.858;25.974;2023-11-19T08:54:09;3.53;;;2.97;;
42168;SDS011;27838;43.858;25.974;2023-11-19T08:56:36;4.95;;;3.30;;
42168;SDS011;27838;43.858;25.974;2023-11-19T08:59:04;7.90;;;3.92;;
42168;SDS011;27838;43.858;25.974;2023-11-19T09:01:31;6.28;;;4.40;;
42168;SDS011;27838;43.858;25.974;2023-11-19T09:03:58;3.80;;;3.30;;
42168;SDS011;27838;43.858;25.974;2023-11-19T09:06:24;5.35;;;4.13;;
42168;SDS011;27838;43.858;25.974;2023-11-19T09:08:51;5.50;;;3.63;;
42168;SDS011;27838;43.858;25.974;2023-11-19T09:11:18;17.27;;;5.30;;
42168;SDS011;27838;43.858;25.974;2023-11-19T09:13:44;11.93;;;7.13;;
42168;SDS011;27838;43.858;25.974;2023-11-19T09:16:11;8.52;;;5.38;;
42168;SDS011;27838;43.858;25.974;2023-11-19T09:18:38;17.08;;;7.28;;
42168;SDS011;27838;43.858;25.974;2023-11-19T09:21:05;11.70;;;8.07;;
42168;SDS011;27838;43.858;25.974;2023-11-19T09:23:32;16.52;;;11.25;;
42168;SDS011;27838;43.858;25.974;2023-11-19T09:26:04;5.25;;;3.88;;
42168;SDS011;27838;43.858;25.974;2023-11-19T09:28:36;5.78;;;4.10;;
42168;SDS011;27838;43.858;25.974;2023-11-19T09:31:03;8.23;;;5.32;;
42168;SDS011;27838;43.858;25.974;2023-11-19T09:33:38;7.53;;;4.35;;
42168;SDS011;27838;43.858;25.974;2023-11-19T09:36:05;10.40;;;4.85;;
42168;SDS011;27838;43.858;25.974;2023-11-19T09:38:32;6.32;;;3.95;;
42168;SDS011;27838;43.858;25.974;2023-11-19T09:40:58;6.85;;;4.15;;
42168;SDS011;27838;43.858;25.974;2023-11-19T09:43:26;14.65;;;3.80;;
42168;SDS011;27838;43.858;25.974;2023-11-19T09:45:54;7.50;;;4.45;;
42168;SDS011;27838;43.858;25.974;2023-11-19T09:48:22;3.88;;;3.35;;
42168;SDS011;27838;43.858;25.974;2023-11-19T09:50:51;10.13;;;3.85;;
42168;SDS011;27838;43.858;25.974;2023-11-19T09:53:18;5.65;;;4.13;;
42168;SDS011;27838;43.858;25.974;2023-11-19T09:55:46;16.55;;;11.07;;
42168;SDS011;27838;43.858;25.974;2023-11-19T09:58:13;7.85;;;5.57;;
42168;SDS011;27838;43.858;25.974;2023-11-19T10:00:40;7.55;;;4.78;;
42168;SDS011;27838;43.858;25.974;2023-11-19T10:03:07;5.90;;;3.35;;
42168;SDS011;27838;43.858;25.974;2023-11-19T10:05:37;4.00;;;3.08;;
42168;SDS011;27838;43.858;25.974;2023-11-19T10:08:05;12.30;;;7.45;;
42168;SDS011;27838;43.858;25.974;2023-11-19T10:10:32;7.55;;;5.68;;
42168;SDS011;27838;43.858;25.974;2023-11-19T10:12:59;5.63;;;4.03;;
42168;SDS011;27838;43.858;25.974;2023-11-19T10:15:26;7.07;;;5.45;;
42168;SDS011;27838;43.858;25.974;2023-11-19T10:17:57;6.57;;;4.07;;
42168;SDS011;27838;43.858;25.974;2023-11-19T10:20:25;5.88;;;4.30;;
42168;SDS011;27838;43.858;25.974;2023-11-19T10:22:55;4.85;;;3.50;;
42168;SDS011;27838;43.858;25.974;2023-11-19T10:25:23;4.27;;;3.40;;
42168;SDS011;27838;43.858;25.974;2023-11-19T10:27:53;4.50;;;3.03;;
42168;SDS011;27838;43.858;25.974;2023-11-19T10:30:22;8.05;;;4.20;;
42168;SDS011;27838;43.858;25.974;2023-11-19T10:35:36;3.83;;;3.22;;
42168;SDS011;27838;43.858;25.974;2023-11-19T10:38:17;4.68;;;3.78;;
42168;SDS011;27838;43.858;25.974;2023-11-19T10:40:43;4.00;;;3.40;;
42168;SDS011;27838;43.858;25.974;2023-11-19T10:43:10;5.55;;;3.35;;
42168;SDS011;27838;43.858;25.974;2023-11-19T10:45:37;6.13;;;3.63;;
42168;SDS011;27838;43.858;25.974;2023-11-19T10:48:04;6.47;;;3.97;;
42168;SDS011;27838;43.858;25.974;2023-11-19T10:50:34;5.03;;;3.35;;
42168;SDS011;27838;43.858;25.974;2023-11-19T10:53:05;4.05;;;3.22;;
42168;SDS011;27838;43.858;25.974;2023-11-19T10:55:35;17.38;;;6.70;;
42168;SDS011;27838;43.858;25.974;2023-11-19T10:58:05;4.57;;;3.83;;
42168;SDS011;27838;43.858;25.974;2023-11-19T11:00:47;7.45;;;4.30;;
42168;SDS011;27838;43.858;25.974;2023-11-19T11:05:48;8.52;;;3.80;;
42168;SDS011;27838;43.858;25.974;2023-11-19T11:08:18;5.70;;;3.72;;
42168;SDS011;27838;43.858;25.974;2023-11-19T11:10:52;4.00;;;3.40;;
42168;SDS011;27838;43.858;25.974;2023-11-19T11:13:20;5.55;;;4.28;;
42168;SDS011;27838;43.858;25.974;2023-11-19T11:15:49;4.97;;;3.70;;
42168;SDS011;27838;43.858;25.974;2023-11-19T11:18:17;10.40;;;3.92;;
42168;SDS011;27838;43.858;25.974;2023-11-19T11:20:44;6.07;;;4.70;;
42168;SDS011;27838;43.858;25.974;2023-11-19T11:29:26;5.55;;;3.13;;
42168;SDS011;27838;43.858;25.974;2023-11-19T11:39:42;4.97;;;3.08;;
42168;SDS011;27838;43.858;25.974;2023-11-19T11:55:27;4.15;;;2.97;;
42168;SDS011;27838;43.858;25.974;2023-11-19T11:57:55;6.60;;;3.13;;
42168;SDS011;27838;43.858;25.974;2023-11-19T12:00:31;7.18;;;3.70;;
42168;SDS011;27838;43.858;25.974;2023-11-19T12:03:06;6.13;;;3.33;;
42168;SDS011;27838;43.858;25.974;2023-11-19T12:05:46;4.15;;;3.28;;
42168;SDS011;27838;43.858;25.974;2023-11-19T12:08:14;4.93;;;3.33;;
42168;SDS011;27838;43.858;25.974;2023-11-19T12:10:49;4.35;;;3.20;;
42168;SDS011;27838;43.858;25.974;2023-11-19T12:13:18;4.63;;;3.10;;
42168;SDS011;27838;43.858;25.974;2023-11-19T12:18:31;7.25;;;4.70;;
42168;SDS011;27838;43.858;25.974;2023-11-19T12:20:59;5.63;;;3.88;;
42168;SDS011;27838;43.858;25.974;2023-11-19T12:23:27;4.18;;;2.85;;
42168;SDS011;27838;43.858;25.974;2023-11-19T12:25:55;6.55;;;3.47;;
42168;SDS011;27838;43.858;25.974;2023-11-19T12:28:22;5.40;;;3.97;;
42168;SDS011;27838;43.858;25.974;2023-11-19T12:30:49;4.50;;;3.38;;
42168;SDS011;27838;43.858;25.974;2023-11-19T12:33:16;6.03;;;3.88;;
42168;SDS011;27838;43.858;25.974;2023-11-19T12:35:46;4.85;;;3.72;;
42168;SDS011;27838;43.858;25.974;2023-11-19T12:38:20;6.03;;;3.70;;
42168;SDS011;27838;43.858;25.974;2023-11-19T12:41:03;6.70;;;4.40;;
42168;SDS011;27838;43.858;25.974;2023-11-19T12:43:30;4.28;;;3.55;;
42168;SDS011;27838;43.858;25.974;2023-11-19T12:45:59;5.38;;;3.83;;
42168;SDS011;27838;43.858;25.974;2023-11-19T12:48:26;4.35;;;3.60;;
42168;SDS011;27838;43.858;25.974;2023-11-19T12:50:53;5.07;;;3.92;;
42168;SDS011;27838;43.858;25.974;2023-11-19T12:55:51;5.13;;;3.63;;
42168;SDS011;27838;43.858;25.974;2023-11-19T12:58:30;5.13;;;3.35;;
42168;SDS011;27838;43.858;25.974;2023-11-19T13:01:04;5.13;;;3.88;;
42168;SDS011;27838;43.858;25.974;2023-11-19T13:03:33;7.13;;;4.88;;
42168;SDS011;27838;43.858;25.974;2023-11-19T13:06:01;5.35;;;3.83;;
42168;SDS011;27838;43.858;25.974;2023-11-19T13:08:39;7.07;;;3.90;;
42168;SDS011;27838;43.858;25.974;2023-11-19T13:11:07;4.65;;;3.55;;
42168;SDS011;27838;43.858;25.974;2023-11-19T13:16:24;5.40;;;3.75;;
42168;SDS011;27838;43.858;25.974;2023-11-19T13:18:51;10.57;;;4.47;;
42168;SDS011;27838;43.858;25.974;2023-11-19T13:21:18;4.97;;;3.92;;
42168;SDS011;27838;43.858;25.974;2023-11-19T13:23:45;5.65;;;3.50;;
42168;SDS011;27838;43.858;25.974;2023-11-19T13:26:11;5.47;;;3.58;;
42168;SDS011;27838;43.858;25.974;2023-11-19T13:28:38;10.77;;;4.00;;
42168;SDS011;27838;43.858;25.974;2023-11-19T13:31:05;4.38;;;3.45;;
42168;SDS011;27838;43.858;25.974;2023-11-19T13:33:32;4.35;;;3.40;;
42168;SDS011;27838;43.858;25.974;2023-11-19T13:35:59;6.85;;;3.80;;
42168;SDS011;27838;43.858;25.974;2023-11-19T13:38:30;6.80;;;3.95;;
42168;SDS011;27838;43.858;25.974;2023-11-19T13:40:57;3.92;;;3.13;;
42168;SDS011;27838;43.858;25.974;2023-11-19T13:43:24;3.75;;;3.40;;
42168;SDS011;27838;43.858;25.974;2023-11-19T13:45:53;4.40;;;3.58;;
42168;SDS011;27838;43.858;25.974;2023-11-19T13:48:20;9.48;;;4.18;;
42168;SDS011;27838;43.858;25.974;2023-11-19T13:50:46;5.32;;;3.78;;
42168;SDS011;27838;43.858;25.974;2023-11-19T13:53:13;6.57;;;3.20;;
42168;SDS011;27838;43.858;25.974;2023-11-19T13:55:41;5.53;;;4.43;;
42168;SDS011;27838;43.858;25.974;2023-11-19T13:58:08;4.93;;;3.83;;
42168;SDS011;27838;43.858;25.974;2023-11-19T14:00:35;9.02;;;3.40;;
42168;SDS011;27838;43.858;25.974;2023-11-19T14:03:02;8.63;;;4.72;;
42168;SDS011;27838;43.858;25.974;2023-11-19T14:05:29;4.93;;;3.80;;
42168;SDS011;27838;43.858;25.974;2023-11-19T14:07:56;6.22;;;3.83;;
42168;SDS011;27838;43.858;25.974;2023-11-19T14:10:23;8.32;;;4.03;;
42168;SDS011;27838;43.858;25.974;2023-11-19T14:12:49;5.38;;;3.80;;
42168;SDS011;27838;43.858;25.974;2023-11-19T14:15:16;6.75;;;3.97;;
42168;SDS011;27838;43.858;25.974;2023-11-19T14:17:43;5.97;;;4.50;;
42168;SDS011;27838;43.858;25.974;2023-11-19T14:20:10;6.00;;;4.55;;
42168;SDS011;27838;43.858;25.974;2023-11-19T14:22:42;5.85;;;4.47;;
42168;SDS011;27838;43.858;25.974;2023-11-19T14:25:09;11.95;;;8.60;;
42168;SDS011;27838;43.858;25.974;2023-11-19T14:27:37;8.25;;;6.20;;
42168;SDS011;27838;43.858;25.974;2023-11-19T14:30:07;4.93;;;4.32;;
42168;SDS011;27838;43.858;25.974;2023-11-19T14:32:36;6.75;;;4.00;;
42168;SDS011;27838;43.858;25.974;2023-11-19T14:35:03;4.68;;;3.60;;
42168;SDS011;27838;43.858;25.974;2023-11-19T14:37:30;10.90;;;4.85;;
42168;SDS011;27838;43.858;25.974;2023-11-19T14:39:57;6.78;;;4.20;;
42168;SDS011;27838;43.858;25.974;2023-11-19T14:42:24;5.00;;;4.30;;
42168;SDS011;27838;43.858;25.974;2023-11-19T14:44:51;5.07;;;4.07;;
42168;SDS011;27838;43.858;25.974;2023-11-19T14:47:19;5.82;;;3.90;;
42168;SDS011;27838;43.858;25.974;2023-11-19T14:49:48;5.55;;;4.18;;
42168;SDS011;27838;43.858;25.974;2023-11-19T14:52:15;7.32;;;4.55;;
42168;SDS011;27838;43.858;25.974;2023-11-19T14:54:42;6.82;;;4.13;;
42168;SDS011;27838;43.858;25.974;2023-11-19T14:57:08;11.63;;;6.72;;
42168;SDS011;27838;43.858;25.974;2023-11-19T14:59:38;9.85;;;7.53;;
42168;SDS011;27838;43.858;25.974;2023-11-19T15:02:04;10.15;;;6.00;;
42168;SDS011;27838;43.858;25.974;2023-11-19T15:04:31;12.77;;;4.78;;
42168;SDS011;27838;43.858;25.974;2023-11-19T15:06:59;7.22;;;5.28;;
42168;SDS011;27838;43.858;25.974;2023-11-19T15:09:26;6.72;;;4.88;;
42168;SDS011;27838;43.858;25.974;2023-11-19T15:11:53;8.10;;;6.13;;
42168;SDS011;27838;43.858;25.974;2023-11-19T15:14:20;6.85;;;4.22;;
42168;SDS011;27838;43.858;25.974;2023-11-19T15:16:47;5.70;;;3.90;;
42168;SDS011;27838;43.858;25.974;2023-11-19T15:19:16;11.50;;;4.25;;